Time;durP1;ratioP1;P1;durP2;ratioP2;P2;SDS_P1;SDS_P2;PMS_P1;PMS_P2;Temp;Humidity;BMP_temperature;BMP_pressure;BME280_temperature;BME280_humidity;BME280_pressure;Samples;Min_cycle;Max_cycle;Signal;HPM_P1;HPM_P2
2022/04/27 00:01:55;;;;;;;;;;;;;;;20.28;36.94;99022.00;4479277;32;33348;-81
2022/04/27 00:04:23;;;;;;;;;;;;;;;20.90;35.03;99014.84;4482311;32;35077;-82
2022/04/27 00:06:50;;;;;;;;;;;;;;;21.08;35.30;99023.09;4480737;32;35347;-82
2022/04/27 00:09:18;;;;;;;;;;;;;;;20.68;37.62;99021.69;4469050;32;34260;-82
2022/04/27 00:11:45;;;;;;;;;;;;;;;20.57;38.56;99031.69;4484109;32;34095;-82
2022/04/27 00:14:13;;;;;;;;;;;;;;;20.33;39.33;99034.13;4483931;32;33755;-83
2022/04/27 00:16:40;;;;;;;;;;;;;;;20.42;38.13;99039.13;4483753;32;35397;-82
2022/04/27 00:19:07;;;;;;;;;;;;;;;20.56;36.34;99038.75;4483436;32;34238;-83
2022/04/27 00:21:35;;;;;;;;;;;;;;;21.26;35.04;99032.19;4480424;32;34111;-81
2022/04/27 00:24:03;;;;;;;;;;;;;;;21.27;35.19;99024.22;4483477;32;34608;-81
2022/04/27 00:26:31;;;;;;;;;;;;;;;21.26;35.59;99027.78;4483777;32;34530;-83
2022/04/27 00:28:58;;;;;;;;;;;;;;;21.15;36.19;99027.25;4483319;32;34184;-82
2022/04/27 00:31:25;;;;;;;;;;;;;;;20.71;35.72;99031.28;4483776;32;33514;-81
2022/04/27 00:33:53;;;;;;;;;;;;;;;20.90;35.56;99028.03;4482113;32;34284;-83
2022/04/27 00:36:20;;;;;;;;;;;;;;;21.67;35.67;99030.84;4482032;32;35178;-81
2022/04/27 00:38:47;;;;;;;;;;;;;;;21.82;36.78;99032.03;4477084;32;33939;-82
2022/04/27 00:41:15;;;;;;;;;;;;;;;21.40;37.34;99031.75;4480427;32;33461;-82
2022/04/27 00:43:42;;;;;;;;;;;;;;;21.72;37.30;99039.44;4470562;32;34294;-83
2022/04/27 00:46:09;;;;;;;;;;;;;;;21.58;36.95;99033.78;4466809;32;34752;-82
2022/04/27 00:48:39;;;;;;;;;;;;;;;21.78;36.76;99041.88;4466312;32;34960;-83
2022/04/27 00:51:07;;;;;;;;;;;;;;;21.87;36.26;99033.63;4470355;32;33261;-85
2022/04/27 00:53:35;;;;;;;;;;;;;;;19.76;37.50;99033.97;4464908;32;33783;-85
2022/04/27 00:56:03;;;;;;;;;;;;;;;19.51;38.27;99038.97;4481539;32;34440;-82
2022/04/27 00:58:31;;;;;;;;;;;;;;;19.06;39.45;99047.09;4483253;32;34318;-83
2022/04/27 01:01:17;;;;;;;;;;;;;;;17.92;42.11;99059.09;4483707;32;34270;-83
2022/04/27 01:03:44;;;;;;;;;;;;;;;18.56;41.42;99055.19;4482443;32;34052;-85
2022/04/27 01:06:12;;;;;;;;;;;;;;;18.91;40.85;99051.81;4467875;32;33868;-84
2022/04/27 01:08:39;;;;;;;;;;;;;;;19.13;40.91;99046.03;4473281;32;34355;-84
2022/04/27 01:11:07;;;;;;;;;;;;;;;18.13;43.48;99055.19;4469362;32;34354;-84
2022/04/27 01:13:35;;;;;;;;;;;;;;;18.51;42.65;99056.16;4483149;32;34363;-85
2022/04/27 01:16:03;;;;;;;;;;;;;;;18.79;42.07;99048.56;4478539;32;35100;-85
2022/04/27 01:18:30;;;;;;;;;;;;;;;19.26;41.10;99046.63;4482608;32;34599;-84
2022/04/27 01:20:58;;;;;;;;;;;;;;;18.56;43.20;99054.28;4483507;32;33083;-85
2022/04/27 01:23:25;;;;;;;;;;;;;;;18.85;42.91;99051.94;4466249;32;34754;-82
2022/04/27 01:25:59;;;;;;;;;;;;;;;17.66;45.79;99057.78;4478575;32;34885;-81
2022/04/27 01:28:30;;;;;;;;;;;;;;;18.70;43.77;99065.38;4468651;32;34232;-82
2022/04/27 01:30:58;;;;;;;;;;;;;;;19.09;43.38;99061.03;4476214;32;33429;-84
2022/04/27 01:33:26;;;;;;;;;;;;;;;19.08;43.39;99059.28;4469414;32;35023;-83
2022/04/27 01:35:53;;;;;;;;;;;;;;;18.66;44.12;99071.59;4482898;32;34041;-81
2022/04/27 01:38:21;;;;;;;;;;;;;;;19.50;42.52;99071.44;4482410;32;33670;-82
2022/04/27 01:40:51;;;;;;;;;;;;;;;18.82;44.25;99083.50;4468097;32;34081;-82
2022/04/27 01:43:29;;;;;;;;;;;;;;;17.75;47.01;99089.09;4478751;32;34316;-82
2022/04/27 01:45:56;;;;;;;;;;;;;;;18.79;44.46;99098.47;4464223;32;33279;-83
2022/04/27 01:48:24;;;;;;;;;;;;;;;19.11;43.30;99097.78;4474784;32;35192;-83
2022/04/27 01:50:51;;;;;;;;;;;;;;;19.30;43.56;99101.69;4482966;32;33528;-83
2022/04/27 01:56:05;;;;;;;;;;;;;;;19.16;44.32;99093.28;4483277;32;34150;-83
2022/04/27 01:58:33;;;;;;;;;;;;;;;19.29;44.07;99091.22;4477810;32;34552;-83
2022/04/27 02:01:01;;;;;;;;;;;;;;;19.40;44.35;99092.69;4483104;32;34072;-82
2022/04/27 02:03:28;;;;;;;;;;;;;;;19.07;44.76;99093.50;4469440;32;34652;-82
2022/04/27 02:05:57;;;;;;;;;;;;;;;19.36;44.95;99093.69;4469137;32;34159;-82
2022/04/27 02:08:24;;;;;;;;;;;;;;;18.99;45.77;99090.19;4482615;32;34221;-82
2022/04/27 02:10:57;;;;;;;;;;;;;;;19.56;44.40;99082.66;4482719;32;34101;-82
2022/04/27 02:13:26;;;;;;;;;;;;;;;19.85;44.15;99073.19;4481644;32;34850;-82
2022/04/27 02:15:54;;;;;;;;;;;;;;;19.54;44.53;99067.81;4481647;32;34496;-86
2022/04/27 02:18:22;;;;;;;;;;;;;;;19.50;44.92;99072.28;4482023;32;34252;-86
2022/04/27 02:20:50;;;;;;;;;;;;;;;19.54;45.09;99067.81;4482573;32;33328;-86
2022/04/27 02:23:19;;;;;;;;;;;;;;;19.28;45.49;99061.47;4464015;32;34306;-87
2022/04/27 02:25:47;;;;;;;;;;;;;;;19.30;46.00;99070.16;4466187;32;34199;-85
2022/04/27 02:28:15;;;;;;;;;;;;;;;19.30;45.95;99058.78;4471638;32;35272;-86
2022/04/27 02:30:42;;;;;;;;;;;;;;;20.00;44.04;99056.13;4482388;32;32656;-87
2022/04/27 02:33:11;;;;;;;;;;;;;;;20.12;44.15;99061.94;4483116;32;34991;-87
2022/04/27 02:35:38;;;;;;;;;;;;;;;20.17;44.26;99060.03;4482807;32;34299;-86
2022/04/27 02:38:05;;;;;;;;;;;;;;;20.57;43.41;99055.41;4482510;32;35238;-85
2022/04/27 02:40:34;;;;;;;;;;;;;;;20.48;43.60;99048.59;4482380;32;33852;-84
2022/04/27 02:43:01;;;;;;;;;;;;;;;20.47;43.46;99046.91;4473854;32;33978;-86
2022/04/27 02:45:28;;;;;;;;;;;;;;;20.12;44.15;99045.28;4482967;32;34179;-86
2022/04/27 02:47:56;;;;;;;;;;;;;;;19.64;45.03;99045.69;4482349;32;34036;-86
2022/04/27 02:53:10;;;;;;;;;;;;;;;19.69;44.70;99051.69;4479629;32;34413;-86
2022/04/27 02:55:38;;;;;;;;;;;;;;;20.11;44.14;99044.38;4482757;32;34373;-83
2022/04/27 02:58:05;;;;;;;;;;;;;;;20.38;43.65;99042.78;4482437;32;34129;-84
2022/04/27 03:00:34;;;;;;;;;;;;;;;20.06;43.89;99040.19;4482625;32;34314;-86
2022/04/27 03:03:01;;;;;;;;;;;;;;;20.56;43.01;99046.63;4480143;32;34222;-86
2022/04/27 03:05:29;;;;;;;;;;;;;;;20.30;43.42;99039.47;4482199;32;34892;-87
2022/04/27 03:07:56;;;;;;;;;;;;;;;19.91;44.39;99047.56;4482213;32;33535;-87
2022/04/27 03:10:24;;;;;;;;;;;;;;;20.23;43.84;99044.94;4476698;32;34206;-82
2022/04/27 03:12:51;;;;;;;;;;;;;;;20.29;43.75;99050.91;4477908;32;34300;-86
2022/04/27 03:15:22;;;;;;;;;;;;;;;19.44;45.59;99051.44;4481729;32;34448;-87
2022/04/27 03:18:16;;;;;;;;;;;;;;;19.39;45.30;99059.41;4467735;32;34846;-87
2022/04/27 03:20:43;;;;;;;;;;;;;;;18.92;46.79;99064.03;4475089;32;33940;-86
2022/04/27 03:23:11;;;;;;;;;;;;;;;18.89;46.66;99061.47;4482559;32;34312;-87
2022/04/27 03:25:39;;;;;;;;;;;;;;;18.94;46.76;99057.00;4477115;32;34388;-87
2022/04/27 03:28:07;;;;;;;;;;;;;;;19.11;45.80;99055.72;4482360;32;35214;-86
2022/04/27 03:30:34;;;;;;;;;;;;;;;19.73;44.94;99052.47;4484370;32;33229;-86
2022/04/27 03:33:02;;;;;;;;;;;;;;;19.54;45.53;99054.66;4469153;32;34552;-80
2022/04/27 03:35:30;;;;;;;;;;;;;;;19.88;44.45;99068.69;4478814;32;35024;-82
2022/04/27 03:37:58;;;;;;;;;;;;;;;19.76;44.70;99069.03;4482731;32;34844;-81
2022/04/27 03:40:26;;;;;;;;;;;;;;;20.02;44.34;99065.72;4482693;32;34247;-81
2022/04/27 03:42:54;;;;;;;;;;;;;;;19.91;44.70;99068.63;4479531;32;34288;-80
2022/04/27 03:45:21;;;;;;;;;;;;;;;20.24;43.82;99076.50;4472898;32;34784;-81
2022/04/27 03:47:49;;;;;;;;;;;;;;;20.02;44.18;99076.25;4480888;32;33948;-81
2022/04/27 03:50:18;;;;;;;;;;;;;;;20.27;43.75;99072.94;4483451;32;33853;-82
2022/04/27 03:52:45;;;;;;;;;;;;;;;20.54;43.00;99072.19;4471246;32;35014;-82
2022/04/27 03:55:13;;;;;;;;;;;;;;;19.96;44.50;99075.53;4487524;31;34576;-82
2022/04/27 03:57:41;;;;;;;;;;;;;;;18.63;47.47;99095.28;4476422;32;34107;-81
2022/04/27 04:00:09;;;;;;;;;;;;;;;19.14;46.44;99082.81;4483478;32;32956;-82
2022/04/27 04:02:39;;;;;;;;;;;;;;;18.18;48.13;99083.09;4483435;31;34059;-82
2022/04/27 04:05:08;;;;;;;;;;;;;;;18.62;47.62;99085.69;4484635;31;34239;-82
2022/04/27 04:07:35;;;;;;;;;;;;;;;19.04;46.65;99083.03;4483569;32;34893;-82
2022/04/27 04:10:03;;;;;;;;;;;;;;;19.42;45.96;99090.88;4483718;32;33412;-81
2022/04/27 04:12:31;;;;;;;;;;;;;;;18.82;46.93;99103.66;4466644;32;34105;-82
2022/04/27 04:14:59;;;;;;;;;;;;;;;18.97;46.49;99092.81;4483581;32;35273;-81
2022/04/27 04:17:26;;;;;;;;;;;;;;;19.09;46.04;99089.94;4482079;32;34555;-82
2022/04/27 04:19:54;;;;;;;;;;;;;;;19.07;46.16;99104.00;4477139;32;33072;-81
2022/04/27 04:22:21;;;;;;;;;;;;;;;19.22;45.77;99108.03;4483180;32;33352;-81
2022/04/27 04:30:21;;;;;;;;;;;;;;;19.56;45.26;99113.34;4483779;32;34162;-82
2022/04/27 04:32:50;;;;;;;;;;;;;;;19.48;45.07;99115.31;4482315;32;33724;-82
2022/04/27 04:35:18;;;;;;;;;;;;;;;18.28;48.00;99127.50;4482717;32;34447;-82
2022/04/27 04:37:45;;;;;;;;;;;;;;;18.16;48.37;99133.84;4469634;32;33664;-81
2022/04/27 04:40:13;;;;;;;;;;;;;;;18.06;48.45;99133.13;4481221;32;33036;-82
2022/04/27 04:42:40;;;;;;;;;;;;;;;17.82;48.99;99129.19;4483774;32;33588;-82
2022/04/27 04:45:08;;;;;;;;;;;;;;;18.30;47.81;99128.34;4482943;32;34095;-82
2022/04/27 04:47:36;;;;;;;;;;;;;;;18.92;47.18;99132.34;4483197;32;33412;-82
2022/04/27 04:50:05;;;;;;;;;;;;;;;18.94;47.15;99134.91;4477313;32;33595;-82
2022/04/27 04:52:33;;;;;;;;;;;;;;;18.63;47.71;99135.53;4482768;32;34381;-82
2022/04/27 04:55:04;;;;;;;;;;;;;;;17.99;48.92;99129.78;4477824;32;35365;-83
2022/04/27 04:57:31;;;;;;;;;;;;;;;18.12;49.23;99132.19;4480397;32;35131;-84
2022/04/27 05:00:02;;;;;;;;;;;;;;;18.02;49.36;99133.22;4482510;32;33877;-83
2022/04/27 05:02:31;;;;;;;;;;;;;;;18.70;47.92;99136.28;4478327;32;34126;-82
2022/04/27 05:05:06;;;;;;;;;;;;;;;18.55;48.48;99141.84;4482241;32;35312;-82
2022/04/27 05:07:34;;;;;;;;;;;;;;;18.25;48.99;99141.53;4483730;32;34588;-81
2022/04/27 05:10:01;;;;;;;;;;;;;;;18.46;48.40;99143.75;4479000;32;33709;-80
2022/04/27 05:12:30;;;;;;;;;;;;;;;18.46;48.49;99149.00;4477243;32;32867;-81
2022/04/27 05:14:58;;;;;;;;;;;;;;;18.48;48.72;99156.84;4475743;31;34226;-79
2022/04/27 05:17:31;;;;;;;;;;;;;;;19.24;47.00;99159.66;4479805;32;35133;-81
2022/04/27 05:19:58;;;;;;;;;;;;;;;18.79;47.84;99161.50;4476919;32;34363;-80
2022/04/27 05:22:26;;;;;;;;;;;;;;;19.22;46.65;99161.47;4480044;32;33759;-82
2022/04/27 05:24:54;;;;;;;;;;;;;;;20.17;45.63;99154.78;4483727;32;35480;-81
2022/04/27 05:27:24;;;;;;;;;;;;;;;20.10;45.00;99162.87;4472606;32;34050;-81
2022/04/27 05:32:44;;;;;;;;;;;;;;;20.46;44.99;99165.44;4472802;32;34062;-81
2022/04/27 05:35:13;;;;;;;;;;;;;;;19.95;45.57;99164.13;4454185;32;34381;-80
2022/04/27 05:37:41;;;;;;;;;;;;;;;20.47;44.84;99168.03;4471378;32;36254;-81
2022/04/27 05:40:09;;;;;;;;;;;;;;;21.06;42.61;99162.87;4468943;32;33452;-81
2022/04/27 05:42:36;;;;;;;;;;;;;;;21.25;42.33;99163.16;4470305;32;34579;-81
2022/04/27 05:45:05;;;;;;;;;;;;;;;19.93;43.86;99169.44;4474108;32;35214;-82
2022/04/27 05:47:33;;;;;;;;;;;;;;;20.55;42.75;99171.34;4468147;32;33843;-82
2022/04/27 05:50:01;;;;;;;;;;;;;;;20.82;42.80;99174.09;4467718;32;33135;-82
2022/04/27 05:52:29;;;;;;;;;;;;;;;21.25;41.83;99180.75;4477958;32;35148;-82
2022/04/27 05:54:57;;;;;;;;;;;;;;;21.47;40.63;99173.06;4483499;32;34110;-82
2022/04/27 05:57:26;;;;;;;;;;;;;;;20.35;43.55;99182.41;4470175;32;34632;-81
2022/04/27 05:59:54;;;;;;;;;;;;;;;20.33;42.39;99175.44;4482325;32;33492;-81
2022/04/27 06:02:21;;;;;;;;;;;;;;;20.73;42.38;99177.87;4482386;32;33953;-82
2022/04/27 06:04:49;;;;;;;;;;;;;;;19.89;44.39;99185.34;4468526;32;34774;-81
2022/04/27 06:07:17;;;;;;;;;;;;;;;19.82;44.18;99182.00;4467713;32;34106;-82
2022/04/27 06:09:44;;;;;;;;;;;;;;;20.02;43.83;99186.75;4479203;32;33341;-82
2022/04/27 06:12:12;;;;;;;;;;;;;;;20.27;43.33;99187.00;4476987;32;33546;-83
2022/04/27 06:14:42;;;;;;;;;;;;;;;20.08;43.73;99197.16;4476545;32;33546;-82
2022/04/27 06:17:10;;;;;;;;;;;;;;;20.20;44.25;99195.97;4471881;32;34758;-86
2022/04/27 06:19:38;;;;;;;;;;;;;;;21.19;43.08;99200.25;4477794;32;33397;-86
2022/04/27 06:22:05;;;;;;;;;;;;;;;20.87;41.94;99202.06;4472397;32;35034;-84
2022/04/27 06:24:32;;;;;;;;;;;;;;;21.37;41.07;99199.75;4476939;32;34105;-85
2022/04/27 06:27:05;;;;;;;;;;;;;;;20.38;42.34;99199.88;4474664;32;34314;-87
2022/04/27 06:29:32;;;;;;;;;;;;;;;20.34;41.36;99199.09;4477259;32;33401;-86
2022/04/27 06:31:59;;;;;;;;;;;;;;;20.89;41.97;99202.88;4483444;32;34195;-84
2022/04/27 06:34:27;;;;;;;;;;;;;;;21.56;40.89;99205.31;4483110;32;34217;-87
2022/04/27 06:36:54;;;;;;;;;;;;;;;19.98;43.68;99211.44;4483295;32;34065;-82
2022/04/27 06:39:22;;;;;;;;;;;;;;;20.36;42.85;99210.44;4483174;32;34323;-87
2022/04/27 06:41:49;;;;;;;;;;;;;;;20.35;41.03;99211.34;4481695;32;33548;-85
2022/04/27 06:44:22;;;;;;;;;;;;;;;20.06;42.42;99211.22;4481903;32;32876;-80
2022/04/27 06:46:53;;;;;;;;;;;;;;;20.70;40.50;99212.22;4468785;32;33364;-87
2022/04/27 06:49:36;;;;;;;;;;;;;;;20.00;42.62;99214.91;4470438;32;34346;-86
2022/04/27 06:52:17;;;;;;;;;;;;;;;19.56;46.37;99223.81;4473132;32;33510;-86
2022/04/27 06:54:48;;;;;;;;;;;;;;;20.22;44.31;99225.72;4470394;32;33751;-87
2022/04/27 06:57:19;;;;;;;;;;;;;;;19.34;46.53;99234.78;4467138;32;32787;-86
2022/04/27 06:59:46;;;;;;;;;;;;;;;19.56;45.61;99244.84;4472957;32;33084;-87
2022/04/27 07:02:14;;;;;;;;;;;;;;;20.27;44.63;99237.03;4483046;32;34917;-87
2022/04/27 07:04:43;;;;;;;;;;;;;;;19.30;45.25;99237.53;4487736;32;36109;-87
2022/04/27 07:07:11;;;;;;;;;;;;;;;18.59;47.83;99240.66;4488408;32;34031;-87
2022/04/27 07:09:38;;;;;;;;;;;;;;;19.40;46.18;99242.56;4487813;32;33318;-87
2022/04/27 07:12:06;;;;;;;;;;;;;;;18.95;47.70;99252.25;4487461;32;35150;-87
2022/04/27 07:14:33;;;;;;;;;;;;;;;20.10;44.54;99245.34;4488072;32;33674;-87
2022/04/27 07:17:01;;;;;;;;;;;;;;;19.12;46.59;99246.66;4488320;32;34912;-88
2022/04/27 07:19:28;;;;;;;;;;;;;;;19.65;45.05;99250.78;4473947;32;33097;-88
2022/04/27 07:21:55;;;;;;;;;;;;;;;19.31;46.51;99244.50;4487989;32;35092;-87
2022/04/27 07:24:24;;;;;;;;;;;;;;;19.82;45.40;99252.19;4487938;32;34451;-86
2022/04/27 07:26:51;;;;;;;;;;;;;;;19.89;45.06;99245.87;4487391;32;34231;-88
2022/04/27 07:29:18;;;;;;;;;;;;;;;19.35;46.21;99254.06;4473712;32;33314;-86
2022/04/27 07:31:48;;;;;;;;;;;;;;;19.59;45.22;99256.16;4487495;32;34844;-87
2022/04/27 07:34:16;;;;;;;;;;;;;;;18.91;47.41;99261.97;4487348;32;34170;-87
2022/04/27 07:36:43;;;;;;;;;;;;;;;19.95;45.39;99252.75;4473199;32;34353;-86
2022/04/27 07:39:10;;;;;;;;;;;;;;;19.48;46.04;99263.44;4487478;32;33407;-87
2022/04/27 07:41:38;;;;;;;;;;;;;;;18.91;47.26;99267.22;4487136;32;34153;-87
2022/04/27 07:44:06;;;;;;;;;;;;;;;19.51;46.31;99263.38;4487381;32;34070;-86
2022/04/27 07:46:33;;;;;;;;;;;;;;;18.83;47.75;99266.50;4487564;32;34761;-87
2022/04/27 07:49:01;;;;;;;;;;;;;;;19.55;46.07;99256.28;4487274;32;34336;-88
2022/04/27 07:51:28;;;;;;;;;;;;;;;19.18;46.48;99265.81;4487341;32;34328;-87
2022/04/27 07:53:55;;;;;;;;;;;;;;;18.69;47.83;99265.88;4487438;32;35085;-87
2022/04/27 07:56:23;;;;;;;;;;;;;;;18.80;47.73;99269.19;4487112;32;33878;-88
2022/04/27 07:58:50;;;;;;;;;;;;;;;18.47;47.50;99276.75;4487246;32;33538;-87
2022/04/27 08:01:17;;;;;;;;;;;;;;;18.10;48.08;99273.00;4487223;32;33452;-88
2022/04/27 08:03:45;;;;;;;;;;;;;;;19.42;45.65;99274.91;4487055;32;34537;-88
2022/04/27 08:06:12;;;;;;;;;;;;;;;19.45;45.56;99272.22;4487226;32;34298;-88
2022/04/27 08:08:39;;;;;;;;;;;;;;;18.68;46.72;99269.37;4486958;32;33455;-87
2022/04/27 08:11:07;;;;;;;;;;;;;;;19.31;44.89;99273.41;4487037;32;33900;-85
2022/04/27 08:13:34;;;;;;;;;;;;;;;19.84;43.44;99272.25;4486788;32;34863;-87
2022/04/27 08:16:02;;;;;;;;;;;;;;;20.42;43.11;99265.59;4483579;32;33970;-88
2022/04/27 08:18:29;;;;;;;;;;;;;;;20.25;41.99;99275.69;4484130;32;34236;-87
2022/04/27 08:21:15;;;;;;;;;;;;;;;20.71;41.21;99266.63;4484145;32;34911;-87
2022/04/27 08:23:43;;;;;;;;;;;;;;;21.01;40.96;99285.13;4483824;32;35285;-87
2022/04/27 08:26:10;;;;;;;;;;;;;;;19.67;43.75;99285.81;4469830;32;34774;-87
2022/04/27 08:28:38;;;;;;;;;;;;;;;20.10;43.30;99292.72;4484165;32;34244;-86
2022/04/27 08:31:06;;;;;;;;;;;;;;;20.15;41.86;99287.31;4483974;32;34198;-87
2022/04/27 08:33:33;;;;;;;;;;;;;;;19.45;43.26;99295.03;4484195;32;34175;-87
2022/04/27 08:36:00;;;;;;;;;;;;;;;19.73;42.95;99295.31;4484458;32;34210;-88
2022/04/27 08:38:48;;;;;;;;;;;;;;;19.60;43.31;99299.97;4483835;32;34330;-87
2022/04/27 08:41:15;;;;;;;;;;;;;;;20.02;43.62;99296.44;4484027;32;34867;-87
2022/04/27 08:43:42;;;;;;;;;;;;;;;20.63;42.92;99293.16;4483863;32;34391;-87
2022/04/27 08:46:10;;;;;;;;;;;;;;;20.93;41.13;99287.97;4469840;32;34656;-87
2022/04/27 08:48:37;;;;;;;;;;;;;;;21.37;39.78;99278.84;4483902;32;33067;-88
2022/04/27 08:51:05;;;;;;;;;;;;;;;20.67;41.69;99280.78;4483589;32;34837;-84
2022/04/27 08:53:33;;;;;;;;;;;;;;;20.55;42.20;99281.09;4484061;32;35264;-87
2022/04/27 08:56:01;;;;;;;;;;;;;;;20.39;42.61;99281.47;4483847;32;34843;-87
2022/04/27 08:58:28;;;;;;;;;;;;;;;20.69;42.28;99281.62;4483848;32;33535;-87
2022/04/27 09:01:12;;;;;;;;;;;;;;;21.08;42.22;99278.78;4483738;32;33847;-88
2022/04/27 09:03:39;;;;;;;;;;;;;;;20.23;44.73;99276.59;4483542;32;35105;-87
2022/04/27 09:06:07;;;;;;;;;;;;;;;21.50;41.60;99278.47;4469594;32;34704;-88
2022/04/27 09:08:37;;;;;;;;;;;;;;;21.42;41.32;99281.34;4483592;32;33453;-88
2022/04/27 09:11:18;;;;;;;;;;;;;;;21.04;42.68;99275.38;4483582;32;34135;-86
2022/04/27 09:13:55;;;;;;;;;;;;;;;22.15;39.95;99275.59;4469469;32;35212;-88
2022/04/27 09:16:26;;;;;;;;;;;;;;;21.79;40.39;99283.75;4483721;32;34479;-87
2022/04/27 09:21:54;;;;;;;;;;;;;;;21.13;41.51;99279.50;4483435;32;33652;-86
2022/04/27 09:24:21;;;;;;;;;;;;;;;21.77;40.66;99277.63;4483704;32;35347;-87
2022/04/27 09:27:18;;;;;;;;;;;;;;;21.32;41.92;99283.34;4483656;32;33750;-86
2022/04/27 09:29:56;;;;;;;;;;;;;;;20.84;42.58;99283.84;4470503;32;33776;-87
2022/04/27 09:32:23;;;;;;;;;;;;;;;20.33;43.92;99291.28;4469689;32;34222;-88
2022/04/27 09:34:51;;;;;;;;;;;;;;;20.30;44.25;99284.31;4469413;32;33944;-87
2022/04/27 09:37:19;;;;;;;;;;;;;;;20.41;43.50;99284.91;4483570;32;33888;-88
2022/04/27 09:39:59;;;;;;;;;;;;;;;19.92;45.32;99288.72;4469369;32;33306;-87
2022/04/27 09:42:30;;;;;;;;;;;;;;;20.84;42.43;99275.94;4469378;32;34081;-88
2022/04/27 09:45:12;;;;;;;;;;;;;;;20.56;43.78;99278.41;4469428;32;35133;-87
2022/04/27 09:47:44;;;;;;;;;;;;;;;20.18;43.45;99282.00;4483771;32;34559;-87
2022/04/27 09:50:11;;;;;;;;;;;;;;;19.91;44.52;99291.41;4483331;32;33369;-86
2022/04/27 09:52:39;;;;;;;;;;;;;;;20.26;44.08;99280.03;4483513;32;33621;-87
2022/04/27 09:55:07;;;;;;;;;;;;;;;21.25;42.07;99273.91;4469382;32;35234;-87
2022/04/27 09:57:35;;;;;;;;;;;;;;;21.14;40.57;99276.84;4483511;32;34558;-87
2022/04/27 10:00:02;;;;;;;;;;;;;;;21.55;40.38;99284.47;4483452;32;33559;-87
2022/04/27 10:02:43;;;;;;;;;;;;;;;20.90;41.81;99283.66;4470120;32;34707;-87
2022/04/27 10:05:11;;;;;;;;;;;;;;;19.90;44.73;99293.19;4483369;32;34308;-87
2022/04/27 10:07:38;;;;;;;;;;;;;;;20.24;42.94;99287.13;4483366;32;33877;-86
2022/04/27 10:10:06;;;;;;;;;;;;;;;19.62;44.95;99289.44;4469005;32;33421;-88
2022/04/27 10:12:34;;;;;;;;;;;;;;;20.93;42.41;99289.75;4483371;32;34257;-86
2022/04/27 10:15:02;;;;;;;;;;;;;;;21.54;41.26;99290.66;4483093;32;35278;-86
2022/04/27 10:17:29;;;;;;;;;;;;;;;21.07;42.66;99284.97;4469051;32;34122;-87
2022/04/27 10:19:57;;;;;;;;;;;;;;;21.42;41.51;99291.03;4483212;32;33138;-87
2022/04/27 10:22:31;;;;;;;;;;;;;;;21.83;40.85;99293.28;4456246;32;34715;-87
2022/04/27 10:25:09;;;;;;;;;;;;;;;20.48;43.29;99301.44;4483280;32;34558;-87
2022/04/27 10:27:37;;;;;;;;;;;;;;;20.62;43.97;99303.75;4483455;32;34941;-87
2022/04/27 10:30:05;;;;;;;;;;;;;;;21.18;43.30;99298.72;4483031;32;33259;-86
2022/04/27 10:32:33;;;;;;;;;;;;;;;19.33;46.94;99314.56;4483189;32;34598;-87
2022/04/27 10:35:28;;;;;;;;;;;;;;;20.32;43.87;99300.94;4482952;32;34197;-87
2022/04/27 10:38:05;;;;;;;;;;;;;;;20.50;44.35;99301.44;4482411;32;34617;-87
2022/04/27 10:40:34;;;;;;;;;;;;;;;20.31;44.86;99303.62;4468950;32;33220;-87
2022/04/27 10:43:01;;;;;;;;;;;;;;;19.99;46.87;99307.87;4494965;31;33007;-87
2022/04/27 10:45:29;;;;;;;;;;;;;;;20.27;46.46;99309.88;4483168;32;35311;-87
2022/04/27 10:47:56;;;;;;;;;;;;;;;18.91;49.37;99314.50;4483124;32;34337;-87
2022/04/27 10:50:28;;;;;;;;;;;;;;;19.57;47.77;99314.94;4482990;32;33351;-88
2022/04/27 10:52:57;;;;;;;;;;;;;;;19.95;46.25;99318.53;4483030;32;34209;-87
2022/04/27 10:55:34;;;;;;;;;;;;;;;19.12;48.52;99307.97;4483057;32;34532;-86
2022/04/27 10:58:13;;;;;;;;;;;;;;;18.96;49.76;99317.91;4482795;32;34873;-88
2022/04/27 11:01:02;;;;;;;;;;;;;;;19.90;48.22;99316.00;4483044;32;32866;-87
2022/04/27 11:03:35;;;;;;;;;;;;;;;19.03;49.70;99312.53;4482529;32;33699;-86
2022/04/27 11:06:03;;;;;;;;;;;;;;;19.89;47.42;99315.13;4482648;32;35196;-87
2022/04/27 11:08:44;;;;;;;;;;;;;;;18.54;51.50;99313.41;4482648;32;34912;-87
2022/04/27 11:11:11;;;;;;;;;;;;;;;19.07;50.11;99315.06;4468459;32;32978;-86
2022/04/27 11:13:39;;;;;;;;;;;;;;;17.76;53.10;99323.34;4482787;32;35122;-85
2022/04/27 11:16:10;;;;;;;;;;;;;;;18.11;52.84;99319.34;4482645;32;34346;-85
2022/04/27 11:19:07;;;;;;;;;;;;;;;17.97;53.26;99325.66;4482525;32;34110;-87
2022/04/27 11:21:34;;;;;;;;;;;;;;;19.10;50.33;99324.66;4469064;32;32925;-87
2022/04/27 11:24:04;;;;;;;;;;;;;;;18.68;51.38;99319.28;4468619;32;34108;-87
2022/04/27 11:26:39;;;;;;;;;;;;;;;18.21;52.60;99331.41;4482567;32;34778;-86
2022/04/27 11:29:07;;;;;;;;;;;;;;;19.08;50.35;99318.56;4468412;32;34462;-87
2022/04/27 11:31:35;;;;;;;;;;;;;;;19.05;50.77;99316.00;4468171;32;34282;-85
2022/04/27 11:34:19;;;;;;;;;;;;;;;18.18;52.53;99323.59;4482364;32;33985;-85
2022/04/27 11:36:46;;;;;;;;;;;;;;;17.94;52.53;99319.59;4482458;32;35274;-87
2022/04/27 11:39:19;;;;;;;;;;;;;;;18.74;50.16;99321.81;4468192;32;34048;-87
2022/04/27 11:41:46;;;;;;;;;;;;;;;18.22;51.94;99333.16;4482234;32;33321;-85
2022/04/27 11:44:18;;;;;;;;;;;;;;;18.38;50.60;99324.16;4482510;32;34307;-86
2022/04/27 11:46:46;;;;;;;;;;;;;;;17.54;53.85;99329.72;4481778;32;35274;-86
2022/04/27 11:49:18;;;;;;;;;;;;;;;16.70;55.78;99327.12;4482145;32;34428;-87
2022/04/27 11:51:46;;;;;;;;;;;;;;;16.88;55.23;99333.09;4484362;32;34185;-86
2022/04/27 11:54:43;;;;;;;;;;;;;;;18.22;51.82;99327.91;4484437;32;34989;-84
2022/04/27 11:57:13;;;;;;;;;;;;;;;17.50;53.79;99329.78;4470994;32;35278;-86
2022/04/27 11:59:41;;;;;;;;;;;;;;;18.23;51.52;99335.75;4484282;32;34597;-85
2022/04/27 12:02:09;;;;;;;;;;;;;;;18.02;52.27;99336.09;4484252;32;33225;-85
2022/04/27 12:04:37;;;;;;;;;;;;;;;18.46;50.89;99327.53;4484553;32;34944;-85
2022/04/27 12:07:11;;;;;;;;;;;;;;;19.19;49.06;99325.34;4484571;32;34348;-86
2022/04/27 12:09:38;;;;;;;;;;;;;;;18.06;51.76;99331.66;4444318;32;874146;-86
2022/04/27 12:12:09;;;;;;;;;;;;;;;17.36;53.83;99329.06;4484022;32;34215;-86
2022/04/27 12:14:37;;;;;;;;;;;;;;;17.50;53.59;99335.03;4484011;32;33938;-85
2022/04/27 12:17:08;;;;;;;;;;;;;;;17.01;54.26;99332.09;4469869;32;34200;-84
2022/04/27 12:19:36;;;;;;;;;;;;;;;18.79;49.26;99332.22;4483947;32;34119;-85
2022/04/27 12:22:11;;;;;;;;;;;;;;;18.11;50.75;99329.84;4483066;32;33014;-86
2022/04/27 12:24:45;;;;;;;;;;;;;;;17.98;51.44;99330.00;4483889;32;34037;-86
2022/04/27 12:27:19;;;;;;;;;;;;;;;17.76;51.78;99344.31;4468196;32;34385;-83
2022/04/27 12:29:46;;;;;;;;;;;;;;;18.24;50.36;99329.63;4477325;32;34020;-83
2022/04/27 12:32:14;;;;;;;;;;;;;;;18.29;50.37;99331.31;4483668;32;33592;-83
2022/04/27 12:37:31;;;;;;;;;;;;;;;17.44;52.55;99329.84;4471777;32;34813;-86
2022/04/27 12:40:13;;;;;;;;;;;;;;;17.74;51.58;99325.97;4469822;32;34325;-84
2022/04/27 12:42:59;;;;;;;;;;;;;;;17.28;53.07;99336.16;4469621;32;33018;-83
2022/04/27 12:45:26;;;;;;;;;;;;;;;16.36;55.43;99337.00;4483768;32;34160;-83
2022/04/27 12:47:54;;;;;;;;;;;;;;;17.18;53.62;99329.28;4469416;32;33878;-83
2022/04/27 12:50:21;;;;;;;;;;;;;;;17.67;52.11;99328.69;4483667;32;34808;-83
2022/04/27 12:52:49;;;;;;;;;;;;;;;17.56;52.84;99330.56;4483668;32;33314;-83
2022/04/27 12:55:16;;;;;;;;;;;;;;;17.08;53.80;99322.41;4483700;32;34881;-83
2022/04/27 12:57:47;;;;;;;;;;;;;;;17.66;52.06;99321.72;4469736;32;35105;-83
2022/04/27 13:00:18;;;;;;;;;;;;;;;17.88;51.26;99330.16;4483419;32;33707;-83
2022/04/27 13:02:45;;;;;;;;;;;;;;;17.35;52.50;99329.97;4483776;32;32946;-83
2022/04/27 13:05:13;;;;;;;;;;;;;;;16.58;55.31;99331.59;4483505;32;34648;-83
2022/04/27 13:07:40;;;;;;;;;;;;;;;16.16;56.24;99331.06;4469651;32;34201;-83
2022/04/27 13:12:53;;;;;;;;;;;;;;;15.89;57.76;99330.37;4483506;32;33261;-83
2022/04/27 13:15:21;;;;;;;;;;;;;;;15.78;57.25;99325.22;4483433;32;34332;-83
2022/04/27 13:17:50;;;;;;;;;;;;;;;16.48;56.13;99325.59;4483370;32;34407;-83
2022/04/27 13:20:17;;;;;;;;;;;;;;;16.39;55.94;99337.00;4483616;32;34301;-83
2022/04/27 13:22:44;;;;;;;;;;;;;;;16.57;56.38;99325.50;4483432;32;34224;-85